sensor_id;sensor_type;location;lat;lon;timestamp;pressure;altitude;pressure_sealevel;temperature;humidity
41703;BME280;861;48.808;9.006;2024-03-23T00:54:32;96364.22;;;11.73;65.39
41703;BME280;861;48.808;9.006;2024-03-23T00:56:59;96380.75;;;11.56;65.41
41703;BME280;861;48.808;9.006;2024-03-23T00:59:25;96376.53;;;11.14;67.14
41703;BME280;861;48.808;9.006;2024-03-23T01:01:55;96375.56;;;10.94;67.77
41703;BME280;861;48.808;9.006;2024-03-23T01:04:22;96372.41;;;10.55;70.04
41703;BME280;861;48.808;9.006;2024-03-23T01:06:49;96365.56;;;10.36;70.84
41703;BME280;861;48.808;9.006;2024-03-23T01:09:15;96343.78;;;9.68;73.30
41703;BME280;861;48.808;9.006;2024-03-23T01:11:42;96336.53;;;10.19;71.85
41703;BME280;861;48.808;9.006;2024-03-23T01:14:08;96332.88;;;10.40;70.56
41703;BME280;861;48.808;9.006;2024-03-23T01:16:35;96328.66;;;10.32;70.97
41703;BME280;861;48.808;9.006;2024-03-23T01:19:02;96330.00;;;10.10;71.85
41703;BME280;861;48.808;9.006;2024-03-23T01:21:28;96338.25;;;10.47;70.65
41703;BME280;861;48.808;9.006;2024-03-23T01:23:55;96324.78;;;10.29;71.36
41703;BME280;861;48.808;9.006;2024-03-23T01:26:22;96325.94;;;10.32;72.18
41703;BME280;861;48.808;9.006;2024-03-23T01:28:48;96326.59;;;10.46;71.13
41703;BME280;861;48.808;9.006;2024-03-23T01:31:15;96325.34;;;10.58;71.46
41703;BME280;861;48.808;9.006;2024-03-23T01:33:42;96318.38;;;10.53;71.98
41703;BME280;861;48.808;9.006;2024-03-23T01:36:08;96304.66;;;10.64;71.18
41703;BME280;861;48.808;9.006;2024-03-23T01:38:35;96301.50;;;10.69;71.28
41703;BME280;861;48.808;9.006;2024-03-23T01:41:02;96309.66;;;10.72;70.97
41703;BME280;861;48.808;9.006;2024-03-23T01:43:29;96303.69;;;10.84;71.73
41703;BME280;861;48.808;9.006;2024-03-23T01:45:55;96302.22;;;11.14;70.35
41703;BME280;861;48.808;9.006;2024-03-23T01:48:22;96297.06;;;11.19;70.85
41703;BME280;861;48.808;9.006;2024-03-23T01:50:49;96277.78;;;11.03;71.24
41703;BME280;861;48.808;9.006;2024-03-23T01:53:16;96272.91;;;11.25;70.75
41703;BME280;861;48.808;9.006;2024-03-23T01:55:49;96260.63;;;11.40;70.39
41703;BME280;861;48.808;9.006;2024-03-23T01:58:17;96269.66;;;11.33;69.82
41703;BME280;861;48.808;9.006;2024-03-23T02:00:43;96265.63;;;11.45;69.70
41703;BME280;861;48.808;9.006;2024-03-23T02:03:26;96266.09;;;11.36;70.08
41703;BME280;861;48.808;9.006;2024-03-23T02:05:55;96255.22;;;11.66;68.81
41703;BME280;861;48.808;9.006;2024-03-23T02:08:24;96263.91;;;11.58;68.92
41703;BME280;861;48.808;9.006;2024-03-23T02:10:52;96273.72;;;11.52;70.14
41703;BME280;861;48.808;9.006;2024-03-23T02:13:19;96266.53;;;11.35;70.41
41703;BME280;861;48.808;9.006;2024-03-23T02:15:47;96253.00;;;11.28;70.48
41703;BME280;861;48.808;9.006;2024-03-23T02:18:15;96255.38;;;11.22;70.50
41703;BME280;861;48.808;9.006;2024-03-23T02:20:42;96253.41;;;11.26;70.62
41703;BME280;861;48.808;9.006;2024-03-23T02:23:16;96242.28;;;11.44;69.98
41703;BME280;861;48.808;9.006;2024-03-23T02:25:44;96245.72;;;11.48;70.88
41703;BME280;861;48.808;9.006;2024-03-23T02:28:12;96251.94;;;11.48;70.43
41703;BME280;861;48.808;9.006;2024-03-23T02:30:39;96235.19;;;11.50;70.91
41703;BME280;861;48.808;9.006;2024-03-23T02:33:05;96244.88;;;11.24;71.61
41703;BME280;861;48.808;9.006;2024-03-23T02:35:32;96240.59;;;11.53;70.89
41703;BME280;861;48.808;9.006;2024-03-23T02:37:59;96243.03;;;11.44;70.18
41703;BME280;861;48.808;9.006;2024-03-23T02:40:25;96247.66;;;11.47;71.09
41703;BME280;861;48.808;9.006;2024-03-23T02:42:53;96238.38;;;11.45;70.16
41703;BME280;861;48.808;9.006;2024-03-23T02:45:19;96241.91;;;11.12;72.61
41703;BME280;861;48.808;9.006;2024-03-23T02:47:46;96235.63;;;11.15;71.99
41703;BME280;861;48.808;9.006;2024-03-23T02:50:12;96235.56;;;11.22;72.39
41703;BME280;861;48.808;9.006;2024-03-23T02:52:41;96233.19;;;11.24;71.35
41703;BME280;861;48.808;9.006;2024-03-23T02:55:08;96230.78;;;11.29;71.93
41703;BME280;861;48.808;9.006;2024-03-23T02:57:34;96236.66;;;11.28;71.13
41703;BME280;861;48.808;9.006;2024-03-23T03:00:01;96217.31;;;11.75;69.81
41703;BME280;861;48.808;9.006;2024-03-23T03:02:28;96223.19;;;11.74;70.29
41703;BME280;861;48.808;9.006;2024-03-23T03:04:54;96222.25;;;11.54;70.41
41703;BME280;861;48.808;9.006;2024-03-23T03:07:21;96216.94;;;11.47;70.54
41703;BME280;861;48.808;9.006;2024-03-23T03:09:47;96226.00;;;11.07;72.04
41703;BME280;861;48.808;9.006;2024-03-23T03:12:14;96212.50;;;11.00;72.17
41703;BME280;861;48.808;9.006;2024-03-23T03:14:41;96212.41;;;11.03;73.21
41703;BME280;861;48.808;9.006;2024-03-23T03:17:08;96203.25;;;10.90;73.36
41703;BME280;861;48.808;9.006;2024-03-23T03:19:35;96196.19;;;10.96;72.84
41703;BME280;861;48.808;9.006;2024-03-23T03:22:01;96188.41;;;11.25;72.66
41703;BME280;861;48.808;9.006;2024-03-23T03:24:30;96190.41;;;10.91;73.56
41703;BME280;861;48.808;9.006;2024-03-23T03:26:57;96191.84;;;11.29;71.89
41703;BME280;861;48.808;9.006;2024-03-23T03:29:24;96188.84;;;11.23;72.94
41703;BME280;861;48.808;9.006;2024-03-23T03:31:51;96195.66;;;11.05;73.67
41703;BME280;861;48.808;9.006;2024-03-23T03:34:18;96196.06;;;11.03;73.37
41703;BME280;861;48.808;9.006;2024-03-23T03:36:44;96186.09;;;10.93;74.27
41703;BME280;861;48.808;9.006;2024-03-23T03:39:11;96180.75;;;11.16;73.14
41703;BME280;861;48.808;9.006;2024-03-23T03:41:38;96187.47;;;11.08;73.45
41703;BME280;861;48.808;9.006;2024-03-23T03:44:05;96168.56;;;11.24;73.33
41703;BME280;861;48.808;9.006;2024-03-23T03:46:32;96161.34;;;11.41;72.92
41703;BME280;861;48.808;9.006;2024-03-23T03:48:58;96156.38;;;11.32;72.79
41703;BME280;861;48.808;9.006;2024-03-23T03:51:25;96146.06;;;11.20;72.59
41703;BME280;861;48.808;9.006;2024-03-23T03:53:51;96147.31;;;10.86;74.43
41703;BME280;861;48.808;9.006;2024-03-23T03:56:18;96142.56;;;10.90;74.32
41703;BME280;861;48.808;9.006;2024-03-23T03:58:44;96138.88;;;11.03;73.60
41703;BME280;861;48.808;9.006;2024-03-23T04:01:11;96127.91;;;11.10;73.61
41703;BME280;861;48.808;9.006;2024-03-23T04:03:38;96117.53;;;11.28;72.66
41703;BME280;861;48.808;9.006;2024-03-23T04:06:10;96110.47;;;11.31;72.85
41703;BME280;861;48.808;9.006;2024-03-23T04:08:36;96106.00;;;11.17;73.37
41703;BME280;861;48.808;9.006;2024-03-23T04:11:03;96110.72;;;11.40;72.86
41703;BME280;861;48.808;9.006;2024-03-23T04:13:30;96109.88;;;11.43;73.08
41703;BME280;861;48.808;9.006;2024-03-23T04:15:57;96126.00;;;11.57;71.92
41703;BME280;861;48.808;9.006;2024-03-23T04:18:23;96135.13;;;11.96;70.95
41703;BME280;861;48.808;9.006;2024-03-23T04:20:50;96184.09;;;12.07;72.61
41703;BME280;861;48.808;9.006;2024-03-23T04:23:17;96183.50;;;11.96;74.74
41703;BME280;861;48.808;9.006;2024-03-23T04:25:44;96172.84;;;11.78;75.67
41703;BME280;861;48.808;9.006;2024-03-23T04:28:10;96186.06;;;11.80;79.86
41703;BME280;861;48.808;9.006;2024-03-23T04:30:37;96180.63;;;11.80;82.83
41703;BME280;861;48.808;9.006;2024-03-23T04:33:04;96161.47;;;11.57;84.77
41703;BME280;861;48.808;9.006;2024-03-23T04:35:31;96158.91;;;11.46;86.46
41703;BME280;861;48.808;9.006;2024-03-23T04:37:58;96137.63;;;11.87;84.89
41703;BME280;861;48.808;9.006;2024-03-23T04:40:25;96148.59;;;11.84;85.24
41703;BME280;861;48.808;9.006;2024-03-23T04:42:52;96165.97;;;11.70;86.88
41703;BME280;861;48.808;9.006;2024-03-23T04:45:19;96171.97;;;11.85;86.86
41703;BME280;861;48.808;9.006;2024-03-23T04:47:46;96170.78;;;11.86;86.12
41703;BME280;861;48.808;9.006;2024-03-23T04:50:12;96162.97;;;11.88;86.05
41703;BME280;861;48.808;9.006;2024-03-23T04:52:39;96167.88;;;11.73;87.04
41703;BME280;861;48.808;9.006;2024-03-23T04:55:06;96151.19;;;11.68;85.69
41703;BME280;861;48.808;9.006;2024-03-23T04:57:32;96171.81;;;11.42;85.36
41703;BME280;861;48.808;9.006;2024-03-23T04:59:59;96156.84;;;11.27;86.16
41703;BME280;861;48.808;9.006;2024-03-23T05:02:26;96167.06;;;11.20;85.52
41703;BME280;861;48.808;9.006;2024-03-23T05:04:53;96166.81;;;11.11;84.09
41703;BME280;861;48.808;9.006;2024-03-23T05:07:20;96176.97;;;11.07;85.02
41703;BME280;861;48.808;9.006;2024-03-23T05:09:47;96184.03;;;11.04;84.20
41703;BME280;861;48.808;9.006;2024-03-23T05:12:15;96185.41;;;11.16;84.63
41703;BME280;861;48.808;9.006;2024-03-23T05:14:41;96189.69;;;11.17;83.06
41703;BME280;861;48.808;9.006;2024-03-23T05:17:08;96195.97;;;11.14;84.25
41703;BME280;861;48.808;9.006;2024-03-23T05:19:35;96206.97;;;11.03;84.04
41703;BME280;861;48.808;9.006;2024-03-23T05:22:02;96211.63;;;11.06;85.00
41703;BME280;861;48.808;9.006;2024-03-23T05:24:28;96195.28;;;11.06;85.42
41703;BME280;861;48.808;9.006;2024-03-23T05:26:55;96199.44;;;11.14;85.89
41703;BME280;861;48.808;9.006;2024-03-23T05:29:22;96204.72;;;10.98;85.17
41703;BME280;861;48.808;9.006;2024-03-23T05:31:51;96205.81;;;11.04;85.25
41703;BME280;861;48.808;9.006;2024-03-23T05:34:18;96205.59;;;10.92;85.15
41703;BME280;861;48.808;9.006;2024-03-23T05:36:45;96212.91;;;10.98;86.12
41703;BME280;861;48.808;9.006;2024-03-23T05:39:12;96223.56;;;10.86;85.36
41703;BME280;861;48.808;9.006;2024-03-23T05:41:38;96234.03;;;10.87;85.04
41703;BME280;861;48.808;9.006;2024-03-23T05:44:05;96253.47;;;10.52;84.36
41703;BME280;861;48.808;9.006;2024-03-23T05:46:32;96265.59;;;10.40;83.96
41703;BME280;861;48.808;9.006;2024-03-23T05:49:02;96260.72;;;10.21;85.15
41703;BME280;861;48.808;9.006;2024-03-23T05:51:29;96260.28;;;10.26;82.38
41703;BME280;861;48.808;9.006;2024-03-23T05:53:56;96256.97;;;10.08;82.18
41703;BME280;861;48.808;9.006;2024-03-23T05:56:22;96239.94;;;9.97;82.90
41703;BME280;861;48.808;9.006;2024-03-23T05:58:49;96239.16;;;9.93;82.98
41703;BME280;861;48.808;9.006;2024-03-23T06:01:16;96255.00;;;10.05;84.20
41703;BME280;861;48.808;9.006;2024-03-23T06:03:42;96251.56;;;9.98;82.98
41703;BME280;861;48.808;9.006;2024-03-23T06:06:10;96269.47;;;9.92;84.25
41703;BME280;861;48.808;9.006;2024-03-23T06:08:39;96262.09;;;9.96;83.96
41703;BME280;861;48.808;9.006;2024-03-23T06:11:06;96269.56;;;9.81;82.75
41703;BME280;861;48.808;9.006;2024-03-23T06:13:34;96283.09;;;9.88;82.39
41703;BME280;861;48.808;9.006;2024-03-23T06:16:02;96279.94;;;9.93;83.60
41703;BME280;861;48.808;9.006;2024-03-23T06:18:28;96276.84;;;9.91;82.60
41703;BME280;861;48.808;9.006;2024-03-23T06:20:55;96276.50;;;9.89;84.14
41703;BME280;861;48.808;9.006;2024-03-23T06:23:21;96291.63;;;9.90;82.12
41703;BME280;861;48.808;9.006;2024-03-23T06:25:48;96279.72;;;9.70;83.20
41703;BME280;861;48.808;9.006;2024-03-23T06:28:15;96310.75;;;9.80;83.35
41703;BME280;861;48.808;9.006;2024-03-23T06:30:41;96325.53;;;9.72;81.65
41703;BME280;861;48.808;9.006;2024-03-23T06:33:08;96314.72;;;9.61;81.69
41703;BME280;861;48.808;9.006;2024-03-23T06:35:35;96324.41;;;9.62;82.17
41703;BME280;861;48.808;9.006;2024-03-23T06:38:01;96338.88;;;9.42;82.78
41703;BME280;861;48.808;9.006;2024-03-23T06:40:28;96339.22;;;9.54;82.81
41703;BME280;861;48.808;9.006;2024-03-23T06:42:54;96356.25;;;9.58;81.12
41703;BME280;861;48.808;9.006;2024-03-23T06:45:21;96352.47;;;9.45;81.04
41703;BME280;861;48.808;9.006;2024-03-23T06:47:50;96371.88;;;9.44;81.51
41703;BME280;861;48.808;9.006;2024-03-23T06:50:17;96369.13;;;9.47;81.36
41703;BME280;861;48.808;9.006;2024-03-23T06:52:44;96373.41;;;9.38;81.80
41703;BME280;861;48.808;9.006;2024-03-23T06:55:10;96371.81;;;9.51;81.01
41703;BME280;861;48.808;9.006;2024-03-23T06:57:37;96384.66;;;9.43;81.44
41703;BME280;861;48.808;9.006;2024-03-23T07:00:04;96399.84;;;9.41;81.79
41703;BME280;861;48.808;9.006;2024-03-23T07:02:32;96411.84;;;9.40;82.17
41703;BME280;861;48.808;9.006;2024-03-23T07:04:59;96415.31;;;9.47;81.07
41703;BME280;861;48.808;9.006;2024-03-23T07:07:25;96412.63;;;9.33;80.59
41703;BME280;861;48.808;9.006;2024-03-23T07:09:53;96418.06;;;9.44;81.56
41703;BME280;861;48.808;9.006;2024-03-23T07:12:19;96428.16;;;9.40;81.66
41703;BME280;861;48.808;9.006;2024-03-23T07:14:47;96430.84;;;9.47;82.69
41703;BME280;861;48.808;9.006;2024-03-23T07:17:13;96430.06;;;9.46;83.25
41703;BME280;861;48.808;9.006;2024-03-23T07:19:40;96440.59;;;9.41;80.88
41703;BME280;861;48.808;9.006;2024-03-23T07:22:06;96430.84;;;9.47;80.72
41703;BME280;861;48.808;9.006;2024-03-23T07:24:33;96430.91;;;9.29;80.48
41703;BME280;861;48.808;9.006;2024-03-23T07:27:00;96423.50;;;9.33;80.11
41703;BME280;861;48.808;9.006;2024-03-23T07:29:26;96418.84;;;9.37;80.26
41703;BME280;861;48.808;9.006;2024-03-23T07:31:53;96443.66;;;9.46;80.71
41703;BME280;861;48.808;9.006;2024-03-23T07:34:19;96450.63;;;9.54;81.28
41703;BME280;861;48.808;9.006;2024-03-23T07:36:46;96477.06;;;9.25;81.03
41703;BME280;861;48.808;9.006;2024-03-23T07:39:13;96482.50;;;9.29;81.76
41703;BME280;861;48.808;9.006;2024-03-23T07:41:39;96478.63;;;9.16;82.76
41703;BME280;861;48.808;9.006;2024-03-23T07:44:06;96490.28;;;9.13;84.90
41703;BME280;861;48.808;9.006;2024-03-23T07:46:32;96482.53;;;9.08;81.40
41703;BME280;861;48.808;9.006;2024-03-23T07:48:59;96510.06;;;8.78;83.31
41703;BME280;861;48.808;9.006;2024-03-23T07:51:25;96487.16;;;8.72;82.80
41703;BME280;861;48.808;9.006;2024-03-23T07:53:52;96512.38;;;8.83;82.73
41703;BME280;861;48.808;9.006;2024-03-23T07:56:19;96505.78;;;8.70;82.70
41703;BME280;861;48.808;9.006;2024-03-23T07:58:47;96510.03;;;8.54;84.00
41703;BME280;861;48.808;9.006;2024-03-23T08:01:17;96516.25;;;8.65;85.71
41703;BME280;861;48.808;9.006;2024-03-23T08:03:45;96498.03;;;8.76;84.47
41703;BME280;861;48.808;9.006;2024-03-23T08:06:17;96536.03;;;8.83;83.50
41703;BME280;861;48.808;9.006;2024-03-23T08:08:49;96543.78;;;8.81;84.89
41703;BME280;861;48.808;9.006;2024-03-23T08:11:29;96550.41;;;8.97;85.16
41703;BME280;861;48.808;9.006;2024-03-23T08:13:58;96553.91;;;8.98;83.65
41703;BME280;861;48.808;9.006;2024-03-23T08:16:25;96563.59;;;9.13;83.78
41703;BME280;861;48.808;9.006;2024-03-23T08:18:54;96550.44;;;9.15;83.20
41703;BME280;861;48.808;9.006;2024-03-23T08:21:24;96555.06;;;9.28;82.48
41703;BME280;861;48.808;9.006;2024-03-23T08:23:52;96560.09;;;9.12;81.10
41703;BME280;861;48.808;9.006;2024-03-23T08:26:19;96565.16;;;9.10;82.01
41703;BME280;861;48.808;9.006;2024-03-23T08:28:45;96574.84;;;8.97;82.01
41703;BME280;861;48.808;9.006;2024-03-23T08:31:14;96601.25;;;9.28;82.93
41703;BME280;861;48.808;9.006;2024-03-23T08:33:43;96601.25;;;9.57;81.61
41703;BME280;861;48.808;9.006;2024-03-23T08:36:11;96599.72;;;9.45;79.63
41703;BME280;861;48.808;9.006;2024-03-23T08:38:39;96618.34;;;9.64;79.03
41703;BME280;861;48.808;9.006;2024-03-23T08:41:08;96626.88;;;9.84;77.18
41703;BME280;861;48.808;9.006;2024-03-23T08:43:39;96632.69;;;9.79;77.00
41703;BME280;861;48.808;9.006;2024-03-23T08:48:44;96612.50;;;9.90;76.75
41703;BME280;861;48.808;9.006;2024-03-23T08:51:17;96599.28;;;10.10;75.61
41703;BME280;861;48.808;9.006;2024-03-23T08:53:44;96596.97;;;10.08;74.17
41703;BME280;861;48.808;9.006;2024-03-23T08:56:12;96612.84;;;10.17;75.88
41703;BME280;861;48.808;9.006;2024-03-23T08:58:39;96615.56;;;10.20;73.98
41703;BME280;861;48.808;9.006;2024-03-23T09:01:13;96623.56;;;10.66;74.57
41703;BME280;861;48.808;9.006;2024-03-23T09:03:41;96634.91;;;10.50;69.68
41703;BME280;861;48.808;9.006;2024-03-23T09:06:10;96650.16;;;10.20;72.08
41703;BME280;861;48.808;9.006;2024-03-23T09:08:38;96649.00;;;9.96;71.43
41703;BME280;861;48.808;9.006;2024-03-23T09:11:12;96657.53;;;9.91;69.17
41703;BME280;861;48.808;9.006;2024-03-23T09:13:40;96659.88;;;9.79;70.93
41703;BME280;861;48.808;9.006;2024-03-23T09:16:08;96660.28;;;9.98;71.40
41703;BME280;861;48.808;9.006;2024-03-23T09:18:37;96674.28;;;9.83;68.19
41703;BME280;861;48.808;9.006;2024-03-23T09:21:11;96688.63;;;9.76;68.97
41703;BME280;861;48.808;9.006;2024-03-23T09:23:40;96683.59;;;9.78;65.92
41703;BME280;861;48.808;9.006;2024-03-23T09:26:09;96674.28;;;10.11;66.70
41703;BME280;861;48.808;9.006;2024-03-23T09:28:36;96679.69;;;10.00;66.05
41703;BME280;861;48.808;9.006;2024-03-23T09:31:08;96681.63;;;9.79;65.95
41703;BME280;861;48.808;9.006;2024-03-23T09:33:36;96675.44;;;9.92;66.04
41703;BME280;861;48.808;9.006;2024-03-23T09:36:07;96670.00;;;9.78;66.09
41703;BME280;861;48.808;9.006;2024-03-23T09:38:35;96677.38;;;9.64;63.05
41703;BME280;861;48.808;9.006;2024-03-23T09:41:07;96678.53;;;9.73;64.57
41703;BME280;861;48.808;9.006;2024-03-23T09:43:35;96687.88;;;10.14;64.29
41703;BME280;861;48.808;9.006;2024-03-23T09:46:03;96677.38;;;10.30;60.40
41703;BME280;861;48.808;9.006;2024-03-23T09:48:30;96701.09;;;10.09;61.64
41703;BME280;861;48.808;9.006;2024-03-23T09:50:57;96695.63;;;9.98;61.79
41703;BME280;861;48.808;9.006;2024-03-23T09:53:24;96685.91;;;10.25;61.54
41703;BME280;861;48.808;9.006;2024-03-23T09:55:51;96685.91;;;10.01;59.52
41703;BME280;861;48.808;9.006;2024-03-23T09:58:19;96689.03;;;9.96;59.73
41703;BME280;861;48.808;9.006;2024-03-23T10:00:46;96683.22;;;9.83;59.25
41703;BME280;861;48.808;9.006;2024-03-23T10:03:12;96690.59;;;9.97;61.20
41703;BME280;861;48.808;9.006;2024-03-23T10:05:39;96679.72;;;9.69;60.40
41703;BME280;861;48.808;9.006;2024-03-23T10:10:42;96672.69;;;9.47;64.35
41703;BME280;861;48.808;9.006;2024-03-23T10:13:10;96690.97;;;9.74;63.07
41703;BME280;861;48.808;9.006;2024-03-23T10:15:39;96652.47;;;10.21;60.42
41703;BME280;861;48.808;9.006;2024-03-23T10:18:20;96666.34;;;10.65;60.03
41703;BME280;861;48.808;9.006;2024-03-23T10:23:37;96668.56;;;10.99;60.66
41703;BME280;861;48.808;9.006;2024-03-23T10:26:18;96665.00;;;11.09;57.41
41703;BME280;861;48.808;9.006;2024-03-23T10:29:00;96653.44;;;10.87;60.95
41703;BME280;861;48.808;9.006;2024-03-23T10:31:29;96668.63;;;10.81;61.26
41703;BME280;861;48.808;9.006;2024-03-23T10:33:56;96673.78;;;10.54;59.19
41703;BME280;861;48.808;9.006;2024-03-23T10:36:24;96702.25;;;10.11;58.47
41703;BME280;861;48.808;9.006;2024-03-23T10:38:55;96710.38;;;9.59;61.92
41703;BME280;861;48.808;9.006;2024-03-23T10:41:32;96723.78;;;8.95;65.64
41703;BME280;861;48.808;9.006;2024-03-23T10:44:02;96749.56;;;8.51;70.57
41703;BME280;861;48.808;9.006;2024-03-23T10:46:31;96742.63;;;8.06;74.13
41703;BME280;861;48.808;9.006;2024-03-23T10:48:58;96757.94;;;7.88;76.22
41703;BME280;861;48.808;9.006;2024-03-23T10:51:25;96767.34;;;7.57;77.22
41703;BME280;861;48.808;9.006;2024-03-23T10:53:56;96767.59;;;7.09;78.79
41703;BME280;861;48.808;9.006;2024-03-23T10:56:24;96772.97;;;7.05;77.86
41703;BME280;861;48.808;9.006;2024-03-23T10:58:52;96773.22;;;6.97;79.27
41703;BME280;861;48.808;9.006;2024-03-23T11:01:19;96751.91;;;6.92;80.55
41703;BME280;861;48.808;9.006;2024-03-23T11:03:47;96729.91;;;7.26;81.64
41703;BME280;861;48.808;9.006;2024-03-23T11:06:37;96752.28;;;7.60;79.17
41703;BME280;861;48.808;9.006;2024-03-23T11:15:12;96736.13;;;8.18;81.94
41703;BME280;861;48.808;9.006;2024-03-23T11:17:39;96716.13;;;8.36;77.76
41703;BME280;861;48.808;9.006;2024-03-23T11:20:07;96729.03;;;8.57;75.65
41703;BME280;861;48.808;9.006;2024-03-23T11:22:46;96724.91;;;8.87;79.07
41703;BME280;861;48.808;9.006;2024-03-23T11:25:22;96720.00;;;9.24;82.17
41703;BME280;861;48.808;9.006;2024-03-23T11:28:11;96728.19;;;9.35;75.52
41703;BME280;861;48.808;9.006;2024-03-23T11:30:38;96722.34;;;9.29;76.26
41703;BME280;861;48.808;9.006;2024-03-23T11:33:05;96730.50;;;9.37;72.44
41703;BME280;861;48.808;9.006;2024-03-23T11:35:37;96713.41;;;9.29;75.12
41703;BME280;861;48.808;9.006;2024-03-23T11:38:17;96705.66;;;9.34;72.94
41703;BME280;861;48.808;9.006;2024-03-23T11:40:47;96699.09;;;9.46;71.44
41703;BME280;861;48.808;9.006;2024-03-23T11:43:18;96703.00;;;9.63;69.37
41703;BME280;861;48.808;9.006;2024-03-23T11:45:52;96709.19;;;9.53;67.85
41703;BME280;861;48.808;9.006;2024-03-23T11:48:22;96721.63;;;9.68;67.05
41703;BME280;861;48.808;9.006;2024-03-23T11:50:55;96704.16;;;9.65;68.44
41703;BME280;861;48.808;9.006;2024-03-23T11:53:25;96705.72;;;9.70;64.96
41703;BME280;861;48.808;9.006;2024-03-23T11:56:00;96706.47;;;9.60;64.24
41703;BME280;861;48.808;9.006;2024-03-23T11:58:28;96689.38;;;9.49;63.00
41703;BME280;861;48.808;9.006;2024-03-23T12:01:02;96704.94;;;9.52;65.61
41703;BME280;861;48.808;9.006;2024-03-23T12:03:31;96683.97;;;9.59;65.28
41703;BME280;861;48.808;9.006;2024-03-23T12:06:03;96709.59;;;9.79;62.70
41703;BME280;861;48.808;9.006;2024-03-23T12:08:36;96687.47;;;9.74;62.54
41703;BME280;861;48.808;9.006;2024-03-23T12:11:13;96676.97;;;10.04;62.54
41703;BME280;861;48.808;9.006;2024-03-23T12:13:44;96683.59;;;10.20;61.34
41703;BME280;861;48.808;9.006;2024-03-23T12:16:19;96679.72;;;9.69;59.16
41703;BME280;861;48.808;9.006;2024-03-23T12:18:49;96688.97;;;9.32;59.91
41703;BME280;861;48.808;9.006;2024-03-23T12:21:18;96681.19;;;9.20;61.44
41703;BME280;861;48.808;9.006;2024-03-23T12:23:45;96688.59;;;9.34;61.88
41703;BME280;861;48.808;9.006;2024-03-23T12:26:13;96683.59;;;9.64;61.61
41703;BME280;861;48.808;9.006;2024-03-23T12:28:40;96690.56;;;9.65;62.20
41703;BME280;861;48.808;9.006;2024-03-23T12:31:07;96681.63;;;9.65;61.08
41703;BME280;861;48.808;9.006;2024-03-23T12:33:33;96676.56;;;9.60;64.09
41703;BME280;861;48.808;9.006;2024-03-23T12:36:00;96679.69;;;9.65;63.14
41703;BME280;861;48.808;9.006;2024-03-23T12:38:26;96678.91;;;9.79;62.01
41703;BME280;861;48.808;9.006;2024-03-23T12:40:53;96686.69;;;9.70;62.81
41703;BME280;861;48.808;9.006;2024-03-23T12:43:19;96675.81;;;9.91;62.38
41703;BME280;861;48.808;9.006;2024-03-23T12:45:50;96684.34;;;10.28;63.21
41703;BME280;861;48.808;9.006;2024-03-23T12:48:17;96672.59;;;10.62;60.14
41703;BME280;861;48.808;9.006;2024-03-23T12:50:44;96675.72;;;10.57;60.20
41703;BME280;861;48.808;9.006;2024-03-23T12:53:11;96682.63;;;10.87;59.57
41703;BME280;861;48.808;9.006;2024-03-23T12:55:38;96674.13;;;10.74;60.06
41703;BME280;861;48.808;9.006;2024-03-23T12:58:05;96652.28;;;10.88;58.08
41703;BME280;861;48.808;9.006;2024-03-23T13:00:31;96659.97;;;11.04;59.68
41703;BME280;861;48.808;9.006;2024-03-23T13:02:58;96645.31;;;11.45;59.24
41703;BME280;861;48.808;9.006;2024-03-23T13:05:25;96649.81;;;11.69;59.05
41703;BME280;861;48.808;9.006;2024-03-23T13:07:51;96654.34;;;11.35;58.84
41703;BME280;861;48.808;9.006;2024-03-23T13:10:18;96651.06;;;10.93;57.91
41703;BME280;861;48.808;9.006;2024-03-23T13:12:45;96661.22;;;10.85;56.66
41703;BME280;861;48.808;9.006;2024-03-23T13:15:12;96650.06;;;10.51;56.06
41703;BME280;861;48.808;9.006;2024-03-23T13:17:38;96646.63;;;10.37;57.00
41703;BME280;861;48.808;9.006;2024-03-23T13:20:05;96632.69;;;10.00;55.81
41703;BME280;861;48.808;9.006;2024-03-23T13:22:32;96633.03;;;10.23;56.90
41703;BME280;861;48.808;9.006;2024-03-23T13:24:59;96620.63;;;10.22;56.79
41703;BME280;861;48.808;9.006;2024-03-23T13:27:26;96626.72;;;10.57;57.62
41703;BME280;861;48.808;9.006;2024-03-23T13:29:52;96619.59;;;10.81;54.83
41703;BME280;861;48.808;9.006;2024-03-23T13:32:19;96611.22;;;11.20;53.98
41703;BME280;861;48.808;9.006;2024-03-23T13:34:45;96626.78;;;11.23;54.11
41703;BME280;861;48.808;9.006;2024-03-23T13:37:12;96613.16;;;11.23;55.25
41703;BME280;861;48.808;9.006;2024-03-23T13:39:39;96623.13;;;11.47;54.22
41703;BME280;861;48.808;9.006;2024-03-23T13:42:06;96620.00;;;11.96;53.58
41703;BME280;861;48.808;9.006;2024-03-23T13:44:33;96606.31;;;11.99;56.91
41703;BME280;861;48.808;9.006;2024-03-23T13:46:59;96606.41;;;11.38;54.57
41703;BME280;861;48.808;9.006;2024-03-23T13:49:29;96613.81;;;10.79;55.56
41703;BME280;861;48.808;9.006;2024-03-23T13:51:59;96646.16;;;10.56;56.69
41703;BME280;861;48.808;9.006;2024-03-23T13:54:27;96665.63;;;10.54;58.39
41703;BME280;861;48.808;9.006;2024-03-23T13:56:56;96669.19;;;10.20;62.46
41703;BME280;861;48.808;9.006;2024-03-23T13:59:23;96693.59;;;9.25;67.24
41703;BME280;861;48.808;9.006;2024-03-23T14:01:51;96697.13;;;8.36;72.20
41703;BME280;861;48.808;9.006;2024-03-23T14:04:18;96715.66;;;7.76;74.29
41703;BME280;861;48.808;9.006;2024-03-23T14:06:49;96731.16;;;7.39;76.39
41703;BME280;861;48.808;9.006;2024-03-23T14:46:17;96636.94;;;7.59;78.46
41703;BME280;861;48.808;9.006;2024-03-23T14:48:46;96642.03;;;7.67;75.88
41703;BME280;861;48.808;9.006;2024-03-23T14:51:13;96659.06;;;7.68;77.44
41703;BME280;861;48.808;9.006;2024-03-23T14:53:46;96667.94;;;7.65;76.35
41703;BME280;861;48.808;9.006;2024-03-23T14:56:14;96648.91;;;7.58;75.33
41703;BME280;861;48.808;9.006;2024-03-23T14:58:42;96675.28;;;7.61;76.06
41703;BME280;861;48.808;9.006;2024-03-23T15:01:09;96676.25;;;7.39;76.99
41703;BME280;861;48.808;9.006;2024-03-23T15:03:40;96667.53;;;7.63;76.57
41703;BME280;861;48.808;9.006;2024-03-23T15:06:09;96670.66;;;8.19;77.36
41703;BME280;861;48.808;9.006;2024-03-23T15:08:36;96673.81;;;8.25;75.98
41703;BME280;861;48.808;9.006;2024-03-23T15:11:04;96671.81;;;8.22;73.50
41703;BME280;861;48.808;9.006;2024-03-23T15:13:38;96663.69;;;8.22;72.88
41703;BME280;861;48.808;9.006;2024-03-23T15:16:05;96660.41;;;8.49;72.77